Time;durP1;ratioP1;P1;durP2;ratioP2;P2;SDS_P1;SDS_P2;PMS_P1;PMS_P2;Temp;Humidity;BMP_temperature;BMP_pressure;BME280_temperature;BME280_humidity;BME280_pressure;Samples;Min_cycle;Max_cycle;Signal;HPM_P1;HPM_P2
2020/12/25 00:01:25;;;;;;;14.48;5.82;;;5.50;1.00;;;;;;5055403;28;20787;-67
2020/12/25 00:03:51;;;;;;;8.70;5.05;;;5.30;1.00;;;;;;5055423;28;20173;-67
2020/12/25 00:06:17;;;;;;;7.63;5.70;;;5.30;1.00;;;;;;5055538;28;20165;-67
2020/12/25 00:08:42;;;;;;;8.13;5.73;;;5.30;17.80;;;;;;5055684;28;20621;-67
2020/12/25 00:11:08;;;;;;;7.93;5.30;;;5.50;1.00;;;;;;5055253;28;21039;-67
2020/12/25 00:13:33;;;;;;;6.83;4.83;;;5.40;99.90;;;;;;5055259;28;20576;-66
2020/12/25 00:16:00;;;;;;;9.20;6.47;;;5.10;99.90;;;;;;5055277;28;20576;-67
2020/12/25 00:18:26;;;;;;;7.68;6.88;;;5.40;49.90;;;;;;5054227;28;20641;-67
2020/12/25 00:20:52;;;;;;;8.30;5.83;;;6.00;99.90;;;;;;5055452;28;20196;-66
2020/12/25 00:23:18;;;;;;;7.57;5.85;;;5.90;1.00;;;;;;5055125;28;20664;-67
2020/12/25 00:25:44;;;;;;;7.50;5.87;;;6.00;1.00;;;;;;5055056;28;20197;-66
2020/12/25 00:28:10;;;;;;;8.07;6.63;;;6.20;99.90;;;;;;5055038;28;20386;-66
2020/12/25 00:30:35;;;;;;;6.00;5.40;;;6.00;1.00;;;;;;5054927;28;20458;-66
2020/12/25 00:33:01;;;;;;;6.60;5.30;;;6.10;99.90;;;;;;5055142;28;20481;-66
2020/12/25 00:35:27;;;;;;;6.93;5.40;;;5.50;1.00;;;;;;5055188;28;20169;-66
2020/12/25 00:37:52;;;;;;;7.70;5.60;;;5.30;1.00;;;;;;5053990;28;20642;-66
2020/12/25 00:40:18;;;;;;;6.53;5.87;;;5.50;99.90;;;;;;5054686;28;20386;-66
2020/12/25 00:42:43;;;;;;;7.00;6.30;;;5.80;1.00;;;;;;5054829;28;20165;-66
2020/12/25 00:45:09;;;;;;;8.50;5.53;;;5.50;1.00;;;;;;5054871;28;20200;-66
2020/12/25 00:47:35;;;;;;;8.63;5.87;;;5.40;52.20;;;;;;5054680;28;20177;-66
2020/12/25 00:50:00;;;;;;;8.10;5.87;;;5.30;99.90;;;;;;5054820;28;20303;-66
2020/12/25 00:52:26;;;;;;;9.90;6.23;;;5.30;99.90;;;;;;5054657;28;20192;-66
2020/12/25 00:54:52;;;;;;;9.77;6.93;;;5.30;1.00;;;;;;5054845;28;20699;-66
2020/12/25 00:57:18;;;;;;;7.47;6.17;;;5.70;99.90;;;;;;5054711;28;20450;-66
2020/12/25 00:59:43;;;;;;;8.70;6.40;;;5.70;56.00;;;;;;5054357;28;20156;-66
2020/12/25 01:02:09;;;;;;;9.03;5.83;;;6.00;99.90;;;;;;5054473;28;20180;-66
2020/12/25 01:04:35;;;;;;;8.13;6.00;;;6.10;1.00;;;;;;5054371;28;20177;-67
2020/12/25 01:07:07;;;;;;;7.63;5.80;;;6.10;1.00;;;;;;5054335;28;20605;-67
2020/12/25 01:09:33;;;;;;;11.38;7.20;;;5.90;1.00;;;;;;5054288;28;20149;-64
2020/12/25 01:12:00;;;;;;;6.00;5.30;;;5.90;1.00;;;;;;5054072;28;20204;-67
2020/12/25 01:14:31;;;;;;;12.65;7.13;;;6.10;1.00;;;;;;5054202;28;20244;-66
2020/12/25 01:16:57;;;;;;;11.35;6.78;;;6.00;1.00;;;;;;5054393;28;20574;-66
2020/12/25 01:19:24;;;;;;;8.87;6.80;;;5.90;99.90;;;;;;5054232;28;20199;-66
2020/12/25 01:21:49;;;;;;;6.75;6.05;;;6.00;1.00;;;;;;5052780;28;20421;-66
2020/12/25 01:24:15;;;;;;;8.30;6.47;;;5.70;56.80;;;;;;5054231;28;20173;-66
2020/12/25 01:26:40;;;;;;;10.23;6.13;;;6.20;6.00;;;;;;5054030;28;20783;-66
2020/12/25 01:29:06;;;;;;;10.60;6.57;;;6.10;1.00;;;;;;5053917;28;20537;-66
2020/12/25 01:31:32;;;;;;;6.80;5.90;;;5.70;1.00;;;;;;5054257;28;20299;-66
2020/12/25 01:33:57;;;;;;;7.47;5.70;;;6.10;1.00;;;;;;5054462;28;20172;-66
2020/12/25 01:36:23;;;;;;;7.77;5.23;;;6.20;99.90;;;;;;5053864;28;20168;-66
2020/12/25 01:38:49;;;;;;;10.73;6.00;;;6.20;99.90;;;;;;5053960;28;20191;-66
2020/12/25 01:41:15;;;;;;;10.45;5.68;;;5.90;99.90;;;;;;5053553;28;20323;-66
2020/12/25 01:43:41;;;;;;;11.23;5.73;;;6.20;99.90;;;;;;5053645;28;20213;-66
2020/12/25 01:46:08;;;;;;;10.80;4.67;;;6.40;99.90;;;;;;5053775;28;20180;-66
2020/12/25 01:48:33;;;;;;;6.15;4.25;;;6.40;99.90;;;;;;5053668;28;20177;-66
2020/12/25 01:50:59;;;;;;;5.70;5.10;;;6.50;99.90;;;;;;5053266;28;20538;-66
2020/12/25 01:53:27;;;;;;;6.47;5.80;;;6.10;99.90;;;;;;5053779;28;20173;-66
2020/12/25 01:55:54;;;;;;;6.82;5.03;;;6.30;99.90;;;;;;5053350;28;20403;-66
2020/12/25 01:58:21;;;;;;;4.43;4.03;;;6.30;99.90;;;;;;5053376;28;20173;-66
2020/12/25 02:00:47;;;;;;;4.68;4.20;;;6.20;99.90;;;;;;5053492;28;20608;-66
2020/12/25 02:03:16;;;;;;;6.53;4.30;;;6.00;99.90;;;;;;5052030;28;20169;-66
2020/12/25 02:05:46;;;;;;;6.68;3.75;;;6.10;99.90;;;;;;5053466;28;20457;-66
2020/12/25 02:08:13;;;;;;;6.55;4.25;;;5.90;99.90;;;;;;5053098;28;20172;-66
2020/12/25 02:10:39;;;;;;;4.45;3.42;;;5.90;99.90;;;;;;5053132;28;20203;-66
2020/12/25 02:13:06;;;;;;;4.20;3.80;;;6.00;99.90;;;;;;5053044;28;20173;-66
2020/12/25 02:15:32;;;;;;;5.53;3.90;;;6.00;99.90;;;;;;5053330;28;20534;-66
2020/12/25 02:17:58;;;;;;;8.45;3.20;;;6.00;99.90;;;;;;5053003;28;20161;-66
2020/12/25 02:20:23;;;;;;;10.70;4.03;;;6.10;99.90;;;;;;5052980;28;20188;-66
2020/12/25 02:22:49;;;;;;;6.50;4.60;;;6.00;99.90;;;;;;5051748;28;20638;-66
2020/12/25 02:25:16;;;;;;;3.83;3.47;;;6.20;99.90;;;;;;5053267;28;20172;-66
2020/12/25 02:27:42;;;;;;;6.60;3.90;;;6.20;99.90;;;;;;5052969;28;20378;-65
2020/12/25 02:30:08;;;;;;;6.63;3.87;;;6.20;99.70;;;;;;5052806;28;20195;-65
2020/12/25 02:32:34;;;;;;;7.95;3.40;;;6.20;84.20;;;;;;5052975;28;20218;-65
2020/12/25 02:35:00;;;;;;;4.15;3.30;;;6.00;88.40;;;;;;5051724;28;20230;-66
2020/12/25 02:37:26;;;;;;;4.37;3.07;;;6.20;92.20;;;;;;5052830;28;20165;-66
2020/12/25 02:39:52;;;;;;;5.70;3.10;;;6.20;56.40;;;;;;5052592;28;20551;-66
2020/12/25 02:42:18;;;;;;;4.30;3.50;;;6.00;95.80;;;;;;5053311;28;20187;-65
2020/12/25 02:44:43;;;;;;;6.20;4.00;;;5.80;79.90;;;;;;5053220;28;20171;-66
2020/12/25 02:47:10;;;;;;;3.67;3.03;;;5.80;99.90;;;;;;5053228;28;20655;-66
2020/12/25 02:49:35;;;;;;;3.60;3.30;;;5.90;84.00;;;;;;5055272;28;20164;-66
2020/12/25 02:52:01;;;;;;;5.10;3.53;;;5.70;99.90;;;;;;5054109;28;20203;-65
2020/12/25 02:54:26;;;;;;;3.70;3.03;;;5.80;99.90;;;;;;5052979;28;20247;-65
2020/12/25 02:56:52;;;;;;;4.27;3.87;;;5.60;99.90;;;;;;5053054;28;20629;-66
2020/12/25 02:59:17;;;;;;;10.23;3.30;;;5.90;95.90;;;;;;5054814;28;20222;-66
2020/12/25 03:01:48;;;;;;;4.67;3.67;;;5.80;99.90;;;;;;5057452;28;20188;-65
2020/12/25 03:04:14;;;;;;;6.35;4.30;;;5.90;91.50;;;;;;5056982;28;20153;-66
2020/12/25 03:06:40;;;;;;;8.87;4.30;;;5.70;91.40;;;;;;5057002;28;20191;-66
2020/12/25 03:09:05;;;;;;;11.93;5.40;;;5.90;62.90;;;;;;5055678;28;20172;-66
2020/12/25 03:11:31;;;;;;;8.63;4.60;;;5.80;41.10;;;;;;5056748;28;20200;-65
2020/12/25 03:13:56;;;;;;;9.83;3.80;;;5.80;49.10;;;;;;5056698;28;20165;-64
2020/12/25 03:16:22;;;;;;;5.20;4.20;;;5.80;39.90;;;;;;5056491;28;20172;-65
2020/12/25 03:18:47;;;;;;;4.60;4.23;;;5.70;21.00;;;;;;5056416;28;20650;-65
2020/12/25 03:21:13;;;;;;;5.70;4.03;;;5.50;34.90;;;;;;5056305;28;20322;-65
2020/12/25 03:23:39;;;;;;;4.50;4.10;;;5.10;77.70;;;;;;5056328;28;20203;-65
2020/12/25 03:26:04;;;;;;;6.43;4.13;;;5.40;49.00;;;;;;5055116;28;20161;-66
2020/12/25 03:28:30;;;;;;;4.73;3.50;;;5.40;68.80;;;;;;5056334;28;20381;-66
2020/12/25 03:30:55;;;;;;;5.97;3.83;;;5.60;52.20;;;;;;5056125;28;20207;-65
2020/12/25 03:33:21;;;;;;;6.33;3.57;;;5.70;37.70;;;;;;5056156;28;20534;-65
2020/12/25 03:35:47;;;;;;;9.10;4.00;;;5.30;28.90;;;;;;5056151;28;20169;-65
2020/12/25 03:38:12;;;;;;;3.80;3.37;;;4.80;60.40;;;;;;5054666;28;20193;-66
2020/12/25 03:40:38;;;;;;;4.80;2.67;;;5.10;97.30;;;;;;5055819;28;20450;-66
2020/12/25 03:43:04;;;;;;;9.17;3.03;;;5.20;96.90;;;;;;5056169;28;20191;-66
2020/12/25 03:45:29;;;;;;;7.47;3.23;;;5.00;75.90;;;;;;5055866;28;20172;-65
2020/12/25 03:47:55;;;;;;;5.50;2.47;;;5.30;97.00;;;;;;5054605;28;20227;-65
2020/12/25 03:50:20;;;;;;;3.70;2.93;;;4.90;43.00;;;;;;5056021;28;20243;-65
2020/12/25 03:52:46;;;;;;;6.23;2.70;;;4.80;99.90;;;;;;5055886;28;20218;-65
2020/12/25 03:55:11;;;;;;;2.97;2.30;;;4.50;99.90;;;;;;5055747;28;20168;-65
2020/12/25 03:57:37;;;;;;;4.17;2.73;;;5.00;99.90;;;;;;5055684;28;20637;-65
2020/12/25 04:00:04;;;;;;;4.70;2.43;;;5.20;99.90;;;;;;5055606;28;20210;-65
2020/12/25 04:02:29;;;;;;;10.25;2.30;;;5.30;75.80;;;;;;5055601;28;20200;-65
2020/12/25 04:04:55;;;;;;;3.30;2.00;;;5.20;50.90;;;;;;5055589;28;20220;-66
2020/12/25 04:07:20;;;;;;;5.43;1.90;;;5.20;55.50;;;;;;5055725;28;20180;-66
2020/12/25 04:09:46;;;;;;;10.90;2.10;;;5.10;98.30;;;;;;5055670;28;20546;-66
2020/12/25 04:12:11;;;;;;;5.90;2.10;;;5.30;77.60;;;;;;5055253;28;20673;-66
2020/12/25 04:14:37;;;;;;;4.53;2.20;;;5.40;74.00;;;;;;5055378;28;20641;-64
2020/12/25 04:17:02;;;;;;;4.07;1.97;;;5.40;62.00;;;;;;5054425;28;20660;-65
2020/12/25 04:19:28;;;;;;;3.20;1.97;;;5.50;29.90;;;;;;5055281;28;20165;-65
2020/12/25 04:21:53;;;;;;;3.77;1.70;;;5.40;41.40;;;;;;5055425;28;20188;-66
2020/12/25 04:24:19;;;;;;;3.43;1.73;;;5.30;93.20;;;;;;5055212;28;20168;-66
2020/12/25 04:26:46;;;;;;;4.60;1.90;;;5.30;67.90;;;;;;5055747;28;20172;-66
2020/12/25 04:29:12;;;;;;;5.55;1.88;;;5.30;45.60;;;;;;5055355;28;20247;-67
2020/12/25 04:31:37;;;;;;;4.90;1.87;;;5.30;80.30;;;;;;5055042;28;20279;-68
2020/12/25 04:34:03;;;;;;;5.93;1.80;;;5.40;58.70;;;;;;5055124;28;20219;-66
2020/12/25 04:36:28;;;;;;;6.17;1.83;;;5.50;33.00;;;;;;5053686;28;20203;-67
2020/12/25 04:38:54;;;;;;;6.60;1.67;;;5.50;40.10;;;;;;5055203;28;20197;-67
2020/12/25 04:41:19;;;;;;;5.03;1.53;;;5.30;49.10;;;;;;5054711;28;20215;-67
2020/12/25 04:43:45;;;;;;;4.77;1.60;;;5.40;59.70;;;;;;5054937;28;20173;-66
2020/12/25 04:46:11;;;;;;;4.85;1.90;;;5.30;28.80;;;;;;5053486;28;20495;-66
2020/12/25 04:48:37;;;;;;;5.43;1.87;;;5.30;38.20;;;;;;5055041;28;20179;-66
2020/12/25 04:51:04;;;;;;;3.50;1.63;;;5.30;42.00;;;;;;5054667;28;20628;-66
2020/12/25 04:53:31;;;;;;;4.13;1.30;;;5.30;50.20;;;;;;5054589;28;20177;-66
2020/12/25 04:55:57;;;;;;;6.18;2.05;;;4.80;59.70;;;;;;5054607;28;20169;-66
2020/12/25 04:58:23;;;;;;;5.05;1.60;;;5.10;47.60;;;;;;5054646;28;20169;-66
2020/12/25 05:01:06;;;;;;;2.60;1.60;;;5.20;66.40;;;;;;5054437;28;20562;-66
2020/12/25 05:03:39;;;;;;;6.28;1.90;;;4.60;88.90;;;;;;5054638;28;20374;-66
2020/12/25 05:06:09;;;;;;;3.85;2.08;;;4.70;99.90;;;;;;5054665;28;20153;-66
2020/12/25 05:08:44;;;;;;;5.00;2.10;;;5.00;76.50;;;;;;5054380;28;20180;-66
2020/12/25 05:11:12;;;;;;;5.18;1.70;;;4.80;36.20;;;;;;5054196;28;20199;-66
2020/12/25 05:13:52;;;;;;;3.70;2.20;;;4.70;62.50;;;;;;5054171;28;20674;-66
2020/12/25 05:16:20;;;;;;;7.88;2.03;;;4.80;94.40;;;;;;5054414;28;20161;-66
2020/12/25 05:18:47;;;;;;;4.55;1.90;;;4.90;50.40;;;;;;5054529;28;20507;-67
2020/12/25 05:21:14;;;;;;;4.32;2.00;;;4.80;46.20;;;;;;5054061;28;20196;-66
2020/12/25 05:23:41;;;;;;;4.25;2.53;;;4.90;30.00;;;;;;5052693;28;20177;-67
2020/12/25 05:26:08;;;;;;;6.32;2.45;;;4.90;42.20;;;;;;5054019;28;20560;-66
2020/12/25 05:28:43;;;;;;;6.22;1.85;;;4.80;32.00;;;;;;5053883;28;20222;-67
2020/12/25 05:31:10;;;;;;;7.05;3.05;;;4.80;27.80;;;;;;5054075;28;20208;-66
2020/12/25 05:33:37;;;;;;;3.58;1.70;;;4.90;21.40;;;;;;5054451;28;20173;-66
2020/12/25 05:36:10;;;;;;;3.22;1.83;;;4.80;20.40;;;;;;5052611;28;20233;-66
2020/12/25 05:38:49;;;;;;;9.43;2.85;;;4.30;45.60;;;;;;5053891;28;20256;-67
2020/12/25 05:41:15;;;;;;;4.53;2.05;;;4.50;52.70;;;;;;5054275;28;20196;-67
2020/12/25 05:43:47;;;;;;;7.57;2.45;;;4.70;28.40;;;;;;5055458;28;20177;-67
2020/12/25 05:46:13;;;;;;;4.22;2.17;;;4.70;25.80;;;;;;5053774;28;20188;-67
2020/12/25 05:48:39;;;;;;;5.23;2.57;;;4.50;54.70;;;;;;5053942;28;20164;-66
2020/12/25 05:51:08;;;;;;;3.60;1.90;;;4.40;47.50;;;;;;5054015;28;20246;-66
2020/12/25 05:53:36;;;;;;;6.13;2.35;;;4.10;90.10;;;;;;5053502;28;20646;-66
2020/12/25 05:56:02;;;;;;;7.47;2.17;;;4.10;99.90;;;;;;5053455;28;20188;-66
2020/12/25 05:58:30;;;;;;;3.45;2.30;;;4.00;99.90;;;;;;5053359;28;20183;-66
2020/12/25 06:00:56;;;;;;;7.80;2.70;;;3.80;99.90;;;;;;5053828;28;20279;-66
2020/12/25 06:03:22;;;;;;;3.77;2.33;;;4.00;99.90;;;;;;5052068;28;20214;-66
2020/12/25 06:05:50;;;;;;;6.30;2.50;;;3.90;99.90;;;;;;5053279;28;20199;-66
2020/12/25 06:08:34;;;;;;;6.53;2.40;;;3.70;99.90;;;;;;5053248;28;20169;-66
2020/12/25 06:11:02;;;;;;;9.98;2.83;;;3.60;99.90;;;;;;5053401;28;20291;-66
2020/12/25 06:13:42;;;;;;;10.77;3.28;;;3.60;99.90;;;;;;5053205;28;20247;-66
2020/12/25 06:16:14;;;;;;;12.07;4.38;;;3.80;99.90;;;;;;5053518;28;20169;-66
2020/12/25 06:19:04;;;;;;;5.65;2.95;;;3.50;99.90;;;;;;5051882;28;20200;-66
2020/12/25 06:21:50;;;;;;;9.48;3.67;;;3.40;99.90;;;;;;5053065;28;20188;-66
2020/12/25 06:24:19;;;;;;;8.98;2.92;;;3.60;1.00;;;;;;5053199;28;20157;-67
2020/12/25 06:26:49;;;;;;;12.38;3.58;;;3.50;99.90;;;;;;5053040;28;20161;-66
2020/12/25 06:29:16;;;;;;;8.82;2.85;;;3.40;1.00;;;;;;5053335;28;20458;-66
2020/12/25 06:31:42;;;;;;;6.15;3.15;;;3.40;1.00;;;;;;5052851;28;20201;-66
2020/12/25 06:34:09;;;;;;;4.85;3.38;;;3.40;1.00;;;;;;5052994;28;20173;-66
2020/12/25 06:36:35;;;;;;;6.72;4.05;;;3.40;1.00;;;;;;5052125;28;20684;-66
2020/12/25 06:39:10;;;;;;;11.30;4.70;;;3.50;1.00;;;;;;5053054;28;20192;-66
2020/12/25 06:41:36;;;;;;;7.65;3.85;;;3.30;1.00;;;;;;5052694;28;20471;-66
2020/12/25 06:44:08;;;;;;;10.38;3.85;;;3.20;99.90;;;;;;5052778;28;20176;-66
2020/12/25 06:46:35;;;;;;;10.95;3.90;;;3.30;93.10;;;;;;5052853;28;20161;-67
2020/12/25 06:49:07;;;;;;;7.10;4.10;;;3.30;1.00;;;;;;5052835;28;20694;-67
2020/12/25 06:51:41;;;;;;;8.25;3.78;;;3.40;1.00;;;;;;5052619;28;20196;-64
2020/12/25 06:54:12;;;;;;;8.52;4.15;;;3.40;1.00;;;;;;5052768;28;20291;-66
2020/12/25 06:56:41;;;;;;;8.95;4.28;;;3.40;1.00;;;;;;5052752;28;20210;-66
2020/12/25 06:59:21;;;;;;;11.32;5.13;;;3.40;1.00;;;;;;5052657;28;20164;-66
2020/12/25 07:01:48;;;;;;;7.45;4.20;;;3.40;1.00;;;;;;5052903;28;20188;-66
2020/12/25 07:04:30;;;;;;;9.52;5.10;;;3.20;1.00;;;;;;5052666;28;20511;-66
2020/12/25 07:06:59;;;;;;;11.23;5.20;;;3.30;52.50;;;;;;5052597;28;20196;-66
2020/12/25 07:09:46;;;;;;;8.18;5.05;;;3.20;99.90;;;;;;5052535;28;20169;-66
2020/12/25 07:12:22;;;;;;;8.80;4.40;;;3.40;42.40;;;;;;5052470;28;20273;-66
2020/12/25 07:14:48;;;;;;;7.03;4.18;;;3.20;1.00;;;;;;5052486;28;20187;-66
2020/12/25 07:17:14;;;;;;;6.10;4.22;;;3.10;1.00;;;;;;5052811;28;20173;-66
2020/12/25 07:19:40;;;;;;;7.53;4.30;;;3.10;99.50;;;;;;5052436;28;20180;-66
2020/12/25 07:22:07;;;;;;;7.27;4.10;;;2.90;1.00;;;;;;5052445;28;20646;-66
2020/12/25 07:24:37;;;;;;;14.93;5.35;;;2.80;19.40;;;;;;5052500;28;20838;-66
2020/12/25 07:27:03;;;;;;;7.75;5.25;;;2.60;99.90;;;;;;5052514;28;20153;-64
2020/12/25 07:29:31;;;;;;;8.90;5.78;;;2.70;99.90;;;;;;5052394;28;20169;-66
2020/12/25 07:31:56;;;;;;;13.52;6.00;;;2.80;99.90;;;;;;5052257;28;20200;-66
2020/12/25 07:34:26;;;;;;;13.30;5.40;;;3.00;99.90;;;;;;5052343;28;20248;-66
2020/12/25 07:36:53;;;;;;;15.52;6.72;;;3.00;1.00;;;;;;5052564;28;20165;-66
2020/12/25 07:39:19;;;;;;;9.07;6.57;;;3.30;99.90;;;;;;5052522;28;20580;-66
2020/12/25 07:41:45;;;;;;;11.05;5.55;;;3.30;1.00;;;;;;5052031;28;20204;-65
2020/12/25 07:44:11;;;;;;;10.17;7.03;;;3.30;36.60;;;;;;5052286;28;20180;-66
2020/12/25 07:46:37;;;;;;;9.33;6.13;;;3.20;10.80;;;;;;5053329;28;20382;-66
2020/12/25 07:49:05;;;;;;;10.48;5.22;;;3.10;1.00;;;;;;5055902;28;20165;-66
2020/12/25 07:51:31;;;;;;;14.40;8.70;;;3.10;99.90;;;;;;5056559;28;20715;-66
2020/12/25 07:53:59;;;;;;;10.20;5.85;;;3.30;99.90;;;;;;5056197;28;20165;-66
2020/12/25 07:56:28;;;;;;;14.27;7.07;;;3.50;15.40;;;;;;5055727;28;20661;-66
2020/12/25 07:58:55;;;;;;;11.23;6.72;;;3.50;46.50;;;;;;5055648;28;20173;-66
2020/12/25 08:01:24;;;;;;;16.15;6.97;;;3.30;1.00;;;;;;5054312;28;20696;-66
2020/12/25 08:03:51;;;;;;;21.15;7.85;;;3.30;99.90;;;;;;5055617;28;20200;-66
2020/12/25 08:06:21;;;;;;;14.13;7.13;;;3.20;99.90;;;;;;5055535;28;20169;-66
2020/12/25 08:09:17;;;;;;;11.82;6.53;;;3.40;1.00;;;;;;5055520;28;20180;-66
2020/12/25 08:11:43;;;;;;;12.50;6.97;;;3.60;1.00;;;;;;5055125;28;20255;-66
2020/12/25 08:14:10;;;;;;;14.23;7.00;;;3.60;1.00;;;;;;5055507;28;20169;-66
2020/12/25 08:16:38;;;;;;;12.95;6.28;;;3.70;1.00;;;;;;5055756;28;20173;-66
2020/12/25 08:19:04;;;;;;;14.15;6.50;;;3.50;99.90;;;;;;5055378;28;20590;-66
2020/12/25 08:21:38;;;;;;;8.40;5.40;;;3.70;99.90;;;;;;5054006;28;20572;-66
2020/12/25 08:24:05;;;;;;;11.50;4.28;;;3.50;99.90;;;;;;5055498;28;20168;-66
2020/12/25 08:26:31;;;;;;;14.70;5.20;;;3.40;99.90;;;;;;5055511;28;20664;-66
2020/12/25 08:28:57;;;;;;;9.45;5.22;;;3.30;1.00;;;;;;5055172;28;20540;-66
2020/12/25 08:31:22;;;;;;;13.00;5.17;;;3.30;31.60;;;;;;5055071;28;20200;-65
2020/12/25 08:33:56;;;;;;;13.47;4.23;;;3.50;1.00;;;;;;5055166;28;20567;-66
2020/12/25 08:36:22;;;;;;;12.40;4.00;;;3.80;99.90;;;;;;5055124;28;20180;-66
2020/12/25 08:38:48;;;;;;;9.05;4.32;;;4.10;99.90;;;;;;5055403;28;20172;-65
2020/12/25 08:41:15;;;;;;;13.67;4.13;;;4.30;1.00;;;;;;5054948;28;20283;-66
2020/12/25 08:43:40;;;;;;;9.05;3.65;;;4.00;1.00;;;;;;5055194;28;20769;-65
2020/12/25 08:46:06;;;;;;;9.03;4.77;;;4.10;99.90;;;;;;5055149;28;20175;-66
2020/12/25 08:48:33;;;;;;;16.90;4.43;;;3.90;49.20;;;;;;5054841;28;20175;-65
2020/12/25 08:51:06;;;;;;;11.30;5.00;;;3.90;99.90;;;;;;5054569;28;20189;-67
2020/12/25 08:53:32;;;;;;;10.02;4.07;;;3.80;99.90;;;;;;5054664;28;20187;-65
2020/12/25 08:55:57;;;;;;;13.77;4.50;;;3.80;99.90;;;;;;5054644;28;20169;-65
2020/12/25 08:58:23;;;;;;;29.00;5.67;;;3.90;1.00;;;;;;5053713;28;20166;-66
2020/12/25 09:00:59;;;;;;;14.02;5.20;;;3.80;99.90;;;;;;5054788;28;20246;-67
2020/12/25 09:03:39;;;;;;;8.88;4.60;;;3.80;99.90;;;;;;5054773;28;20168;-66
2020/12/25 09:06:05;;;;;;;14.65;4.75;;;3.70;1.00;;;;;;5054479;28;20207;-66
2020/12/25 09:08:31;;;;;;;17.95;5.40;;;3.90;57.60;;;;;;5054548;28;20537;-66
2020/12/25 09:10:57;;;;;;;16.10;5.93;;;4.00;99.90;;;;;;5054476;28;20203;-66
2020/12/25 09:13:22;;;;;;;17.30;6.50;;;3.80;99.90;;;;;;5054265;28;20218;-66
2020/12/25 09:15:48;;;;;;;16.03;6.60;;;4.00;1.00;;;;;;5052997;28;20176;-66
2020/12/25 09:18:13;;;;;;;17.03;6.80;;;4.30;98.30;;;;;;5054213;28;20533;-66
2020/12/25 09:20:39;;;;;;;11.53;6.30;;;4.00;1.00;;;;;;5054100;28;20258;-66
2020/12/25 09:23:04;;;;;;;19.33;8.30;;;4.30;14.50;;;;;;5054056;28;20195;-65
2020/12/25 09:25:30;;;;;;;18.40;7.93;;;4.30;1.00;;;;;;5054144;28;20203;-66
2020/12/25 09:27:55;;;;;;;25.33;8.93;;;4.50;1.00;;;;;;5054107;28;20190;-67
2020/12/25 09:30:21;;;;;;;17.13;8.57;;;4.30;1.00;;;;;;5053970;28;20189;-66
2020/12/25 09:32:46;;;;;;;16.60;7.03;;;4.50;46.70;;;;;;5054278;28;20667;-67
2020/12/25 09:35:12;;;;;;;18.33;8.17;;;4.60;1.00;;;;;;5053867;28;20575;-66
2020/12/25 09:37:38;;;;;;;20.80;9.17;;;4.60;1.00;;;;;;5053953;28;20332;-66
2020/12/25 09:40:03;;;;;;;25.07;10.27;;;4.40;1.00;;;;;;5053643;28;20580;-66
2020/12/25 09:42:29;;;;;;;16.63;9.50;;;4.10;99.90;;;;;;5053867;28;20524;-66
2020/12/25 09:44:54;;;;;;;12.90;8.70;;;4.30;99.90;;;;;;5053898;28;20227;-66
2020/12/25 09:47:20;;;;;;;21.17;9.03;;;4.20;99.90;;;;;;5054038;28;20250;-66
2020/12/25 09:49:46;;;;;;;21.90;10.07;;;4.30;99.90;;;;;;5053569;28;20168;-66
2020/12/25 09:52:11;;;;;;;22.70;9.40;;;4.70;99.90;;;;;;5053485;28;20451;-66
2020/12/25 09:54:37;;;;;;;33.60;12.27;;;4.60;1.00;;;;;;5053570;28;20203;-66
2020/12/25 09:57:04;;;;;;;19.27;11.43;;;4.40;1.00;;;;;;5053478;28;20168;-66
2020/12/25 09:59:29;;;;;;;24.35;15.00;;;4.20;1.00;;;;;;5053409;28;20157;-66
2020/12/25 10:01:55;;;;;;;22.53;13.07;;;4.40;1.00;;;;;;5053295;28;20202;-66
2020/12/25 10:04:21;;;;;;;26.43;13.53;;;4.70;1.00;;;;;;5053456;28;20418;-66
2020/12/25 10:06:46;;;;;;;26.60;13.10;;;5.00;1.00;;;;;;5052136;28;20498;-66
2020/12/25 10:09:12;;;;;;;24.70;13.33;;;5.10;99.90;;;;;;5053247;28;20233;-66
2020/12/25 10:11:38;;;;;;;20.40;10.97;;;4.90;99.90;;;;;;5053012;28;20212;-66
2020/12/25 10:14:04;;;;;;;17.83;10.10;;;4.80;99.90;;;;;;5053084;28;20169;-66
2020/12/25 10:16:30;;;;;;;25.33;10.87;;;4.60;1.00;;;;;;5053130;28;20374;-67
2020/12/25 10:18:55;;;;;;;21.23;11.77;;;4.50;1.00;;;;;;5051907;28;20382;-67
2020/12/25 10:21:21;;;;;;;24.10;12.67;;;4.40;1.00;;;;;;5053157;28;20608;-67
2020/12/25 10:23:46;;;;;;;19.33;11.70;;;4.80;1.00;;;;;;5051812;28;20169;-66
2020/12/25 10:26:12;;;;;;;26.60;13.73;;;4.90;99.90;;;;;;5051895;28;20173;-66
2020/12/25 10:28:40;;;;;;;20.50;12.67;;;4.60;99.90;;;;;;5053545;28;20200;-66
2020/12/25 10:31:08;;;;;;;25.10;14.52;;;4.80;1.00;;;;;;5053169;28;20708;-66
2020/12/25 10:33:34;;;;;;;20.08;15.07;;;4.80;99.90;;;;;;5053259;28;20177;-66
2020/12/25 10:36:00;;;;;;;24.40;13.47;;;4.40;99.90;;;;;;5052978;28;20215;-66
2020/12/25 10:38:25;;;;;;;20.83;11.50;;;4.60;99.90;;;;;;5053341;28;20248;-66
2020/12/25 10:40:51;;;;;;;26.80;13.37;;;4.60;99.90;;;;;;5052857;28;20471;-66
2020/12/25 10:43:17;;;;;;;23.10;12.63;;;4.90;99.90;;;;;;5053298;28;20177;-66
2020/12/25 10:45:42;;;;;;;24.03;13.50;;;4.90;99.90;;;;;;5053034;28;20169;-66
2020/12/25 10:48:08;;;;;;;23.17;12.90;;;4.90;99.90;;;;;;5053399;28;20226;-66
2020/12/25 10:50:34;;;;;;;17.20;12.48;;;5.00;99.90;;;;;;5052899;28;20196;-66
2020/12/25 10:52:59;;;;;;;22.30;13.73;;;5.00;99.90;;;;;;5052745;28;20179;-66
2020/12/25 10:55:25;;;;;;;21.07;12.60;;;4.90;99.90;;;;;;5051521;28;20175;-66
2020/12/25 10:57:50;;;;;;;22.70;13.10;;;5.00;99.90;;;;;;5052809;28;20165;-66
2020/12/25 11:00:16;;;;;;;21.53;12.20;;;4.70;99.90;;;;;;5052712;28;20215;-66
2020/12/25 11:02:41;;;;;;;26.10;12.33;;;4.80;99.90;;;;;;5052761;28;20664;-66
2020/12/25 11:05:07;;;;;;;22.50;11.97;;;4.80;99.90;;;;;;5052656;28;20250;-67
2020/12/25 11:07:33;;;;;;;26.50;11.30;;;4.90;1.00;;;;;;5052703;28;20177;-66
2020/12/25 11:09:58;;;;;;;18.60;11.20;;;4.80;99.90;;;;;;5052571;28;20192;-66
2020/12/25 11:12:24;;;;;;;15.83;10.87;;;5.00;1.00;;;;;;5052494;28;20673;-66
2020/12/25 11:14:49;;;;;;;32.27;12.00;;;5.00;99.90;;;;;;5052650;28;20176;-66
2020/12/25 11:17:18;;;;;;;27.70;12.87;;;5.00;99.90;;;;;;5052782;28;20165;-66
2020/12/25 11:19:43;;;;;;;16.30;10.32;;;5.60;99.90;;;;;;5052613;28;20219;-66
2020/12/25 11:22:19;;;;;;;15.17;10.50;;;5.80;99.90;;;;;;5052961;28;20169;-66
2020/12/25 11:24:44;;;;;;;15.45;10.75;;;5.40;99.90;;;;;;5056741;28;20369;-66
2020/12/25 11:27:10;;;;;;;15.30;9.17;;;5.20;99.90;;;;;;5056620;28;20161;-66
2020/12/25 11:29:36;;;;;;;15.63;9.70;;;5.10;99.90;;;;;;5056289;28;20161;-66
2020/12/25 11:32:02;;;;;;;16.50;9.50;;;5.20;99.90;;;;;;5056510;28;20442;-66
2020/12/25 11:34:27;;;;;;;19.10;10.47;;;5.30;99.90;;;;;;5056209;28;20169;-66
2020/12/25 11:36:53;;;;;;;16.43;8.90;;;5.20;99.90;;;;;;5056138;28;20164;-66
2020/12/25 11:39:18;;;;;;;16.23;9.13;;;5.50;99.90;;;;;;5056086;28;20511;-66
2020/12/25 11:41:44;;;;;;;20.50;9.60;;;5.90;99.90;;;;;;5056098;28;20230;-66
2020/12/25 11:44:09;;;;;;;24.10;9.73;;;5.50;99.90;;;;;;5057534;28;20256;-66
2020/12/25 11:46:35;;;;;;;14.23;8.80;;;5.40;99.90;;;;;;5056040;28;20173;-66
2020/12/25 11:49:03;;;;;;;14.50;10.10;;;5.40;99.90;;;;;;5055977;28;20177;-64
2020/12/25 11:51:29;;;;;;;11.00;7.82;;;5.40;99.90;;;;;;5055825;28;20284;-66
2020/12/25 11:53:55;;;;;;;15.15;8.57;;;5.20;99.90;;;;;;5055831;28;20222;-66
2020/12/25 11:56:29;;;;;;;15.90;8.70;;;5.40;99.90;;;;;;5056144;28;20181;-66
2020/12/25 11:58:58;;;;;;;20.88;9.93;;;6.00;99.90;;;;;;5055842;28;20374;-66
2020/12/25 12:01:24;;;;;;;18.27;9.13;;;5.70;99.90;;;;;;5055739;28;20188;-66
2020/12/25 12:03:50;;;;;;;15.97;8.60;;;5.60;99.90;;;;;;5055740;28;20207;-66
2020/12/25 12:06:25;;;;;;;17.67;9.57;;;5.50;99.90;;;;;;5055893;28;20173;-66
2020/12/25 12:08:54;;;;;;;14.38;9.13;;;5.70;99.90;;;;;;5055623;28;20297;-66
2020/12/25 12:11:20;;;;;;;15.15;8.77;;;5.60;99.90;;;;;;5055357;28;20224;-66
2020/12/25 12:13:45;;;;;;;14.87;8.83;;;5.60;99.90;;;;;;5055514;28;20196;-66
2020/12/25 12:16:15;;;;;;;14.83;8.27;;;5.70;99.90;;;;;;5055444;28;20244;-66
2020/12/25 12:18:41;;;;;;;13.45;8.00;;;5.50;99.90;;;;;;5055372;28;20165;-66
2020/12/25 12:21:08;;;;;;;12.63;8.57;;;5.60;99.90;;;;;;5055396;28;20189;-66
2020/12/25 12:23:34;;;;;;;15.93;8.15;;;6.00;99.90;;;;;;5055317;28;20308;-66
2020/12/25 12:25:59;;;;;;;15.10;7.70;;;5.70;99.90;;;;;;5055575;28;20204;-66
2020/12/25 12:28:25;;;;;;;14.00;7.60;;;5.60;99.90;;;;;;5055756;28;20199;-66
2020/12/25 12:30:50;;;;;;;9.43;7.20;;;5.60;99.90;;;;;;5055630;28;20204;-66
2020/12/25 12:33:16;;;;;;;19.57;9.77;;;5.70;99.90;;;;;;5054146;28;20248;-67
2020/12/25 12:35:42;;;;;;;13.83;6.80;;;5.80;99.90;;;;;;5055452;28;20189;-66
2020/12/25 12:38:08;;;;;;;10.88;6.47;;;6.10;99.90;;;;;;5055314;28;20164;-66
2020/12/25 12:40:33;;;;;;;11.43;6.20;;;5.90;99.90;;;;;;5054971;28;20645;-66
2020/12/25 12:42:59;;;;;;;11.83;7.13;;;6.00;99.90;;;;;;5054951;28;20173;-66
2020/12/25 12:45:24;;;;;;;12.00;6.23;;;6.00;99.90;;;;;;5054984;28;20161;-66
2020/12/25 12:47:50;;;;;;;12.27;6.43;;;6.10;99.90;;;;;;5055108;28;20189;-66
2020/12/25 12:50:15;;;;;;;14.17;6.47;;;6.10;99.90;;;;;;5054946;28;20193;-66
2020/12/25 12:52:41;;;;;;;14.03;7.07;;;6.30;99.90;;;;;;5055056;28;20192;-66